Time;durP1;ratioP1;P1;durP2;ratioP2;P2;SDS_P1;SDS_P2;PMS_P1;PMS_P2;Temp;Humidity;BMP_temperature;BMP_pressure;BME280_temperature;BME280_humidity;BME280_pressure;Samples;Min_cycle;Max_cycle;Signal;HPM_P1;HPM_P2
2021/12/07 00:02:03;;;;;;;7.10;5.45;;;;;;;4.73;100.00;98608.22;5074082;28;20198;-77
2021/12/07 00:04:30;;;;;;;6.13;4.47;;;;;;;4.71;100.00;98621.63;5074425;28;20196;-76
2021/12/07 00:06:56;;;;;;;6.43;5.30;;;;;;;4.66;100.00;98620.09;5073751;28;20220;-76
2021/12/07 00:09:23;;;;;;;5.40;4.90;;;;;;;4.62;100.00;98622.06;5074414;28;20627;-78
2021/12/07 00:11:51;;;;;;;5.47;4.60;;;;;;;4.64;100.00;98619.34;5074005;28;20254;-76
2021/12/07 00:14:24;;;;;;;7.40;5.60;;;;;;;4.63;100.00;98621.13;5074327;28;20193;-76
2021/12/07 00:16:52;;;;;;;6.68;4.57;;;;;;;4.76;100.00;98622.25;5073990;28;20188;-77
2021/12/07 00:19:19;;;;;;;7.28;5.68;;;;;;;4.56;100.00;98630.38;5086704;28;20630;-77
2021/12/07 00:21:46;;;;;;;8.05;5.60;;;;;;;4.69;100.00;98631.50;5080681;28;20189;-76
2021/12/07 00:24:14;;;;;;;5.00;4.50;;;;;;;4.76;100.00;98624.06;5075071;28;20634;-76
2021/12/07 00:26:43;;;;;;;6.35;5.40;;;;;;;4.93;100.00;98629.41;5073420;28;20223;-76
2021/12/07 00:29:12;;;;;;;5.40;4.85;;;;;;;4.95;100.00;98623.97;5074271;28;20192;-77
2021/12/07 00:31:47;;;;;;;5.68;4.45;;;;;;;5.09;100.00;98613.47;5073795;28;20197;-76
2021/12/07 00:34:24;;;;;;;5.10;4.10;;;;;;;5.13;100.00;98611.50;5073934;28;20197;-76
2021/12/07 00:36:51;;;;;;;4.57;4.07;;;;;;;4.96;100.00;98604.38;5073915;28;20214;-76
2021/12/07 00:39:20;;;;;;;4.75;4.20;;;;;;;4.96;100.00;98601.72;5073256;28;20203;-77
2021/12/07 00:41:48;;;;;;;5.47;4.20;;;;;;;4.77;100.00;98618.66;5072761;28;20193;-76
2021/12/07 00:44:18;;;;;;;5.65;3.90;;;;;;;4.91;100.00;98617.09;5072657;28;20288;-76
2021/12/07 00:46:45;;;;;;;4.22;3.83;;;;;;;4.88;100.00;98619.91;5053680;28;20668;-77
2021/12/07 00:49:12;;;;;;;4.35;3.50;;;;;;;4.75;100.00;98628.53;5054350;28;20627;-77
2021/12/07 00:51:39;;;;;;;3.83;3.42;;;;;;;4.74;100.00;98631.25;5058975;28;20194;-77
2021/12/07 00:54:06;;;;;;;3.45;2.97;;;;;;;4.67;100.00;98627.19;5073130;28;20651;-76
2021/12/07 00:56:33;;;;;;;2.63;2.42;;;;;;;4.67;100.00;98635.19;5073408;28;20196;-77
2021/12/07 00:58:59;;;;;;;2.88;2.53;;;;;;;4.70;100.00;98651.00;5072508;28;20190;-76
2021/12/07 01:01:27;;;;;;;2.15;1.83;;;;;;;4.59;100.00;98643.56;5072736;28;20193;-76
2021/12/07 01:03:54;;;;;;;2.10;1.90;;;;;;;4.57;100.00;98654.28;5072274;28;20189;-76
2021/12/07 01:06:26;;;;;;;2.30;1.85;;;;;;;4.55;100.00;98666.81;5072464;28;20319;-75
2021/12/07 01:09:08;;;;;;;3.17;1.45;;;;;;;4.15;100.00;98671.38;5071991;28;20221;-77
2021/12/07 01:25:32;;;;;;;4.35;2.10;;;;;;;3.94;100.00;98651.94;5072301;28;20642;-77
2021/12/07 01:28:05;;;;;;;3.33;1.73;;;;;;;3.88;100.00;98659.34;5072685;28;20192;-77
2021/12/07 01:30:44;;;;;;;2.33;1.70;;;;;;;3.95;100.00;98663.44;5073128;28;20182;-77
2021/12/07 01:33:30;;;;;;;1.70;1.30;;;;;;;3.90;100.00;98676.13;5072398;28;20237;-76
2021/12/07 01:36:09;;;;;;;1.73;1.25;;;;;;;3.98;100.00;98684.63;5072984;28;20622;-77
2021/12/07 01:41:29;;;;;;;2.30;1.40;;;;;;;4.07;100.00;98684.22;5071761;28;20282;-77
2021/12/07 01:47:11;;;;;;;2.78;1.63;;;;;;;4.03;100.00;98693.28;5068307;28;20209;-77
2021/12/07 01:50:15;;;;;;;2.40;1.55;;;;;;;4.09;100.00;98698.34;5072560;28;20197;-77
2021/12/07 01:52:57;;;;;;;2.25;1.85;;;;;;;4.14;100.00;98701.63;5071796;28;20193;-77
2021/12/07 02:00:55;;;;;;;3.15;1.52;;;;;;;4.25;100.00;98702.91;5071769;28;20200;-77
2021/12/07 02:03:22;;;;;;;1.70;1.40;;;;;;;4.28;100.00;98695.66;5071663;28;20228;-77
2021/12/07 02:05:50;;;;;;;3.92;1.95;;;;;;;4.23;100.00;98695.03;5071818;28;20223;-77
2021/12/07 02:08:17;;;;;;;2.90;2.15;;;;;;;4.47;100.00;98689.47;5071985;28;20606;-77
2021/12/07 02:10:44;;;;;;;3.15;2.25;;;;;;;4.35;100.00;98697.09;5071690;28;20287;-77
2021/12/07 02:13:22;;;;;;;5.00;2.42;;;;;;;4.15;100.00;98686.50;5071495;28;20209;-77
2021/12/07 02:15:49;;;;;;;2.67;2.30;;;;;;;4.18;100.00;98691.69;5071234;28;20592;-76
2021/12/07 02:18:16;;;;;;;6.75;2.47;;;;;;;4.07;100.00;98696.66;5072039;28;20647;-77
2021/12/07 02:20:46;;;;;;;3.88;2.72;;;;;;;4.08;100.00;98693.06;5071593;28;20185;-77
2021/12/07 02:23:13;;;;;;;6.85;3.13;;;;;;;4.09;100.00;98703.66;5072080;28;20199;-77
2021/12/07 02:25:39;;;;;;;5.28;2.72;;;;;;;4.01;100.00;98711.13;5071231;28;20272;-77
2021/12/07 02:28:12;;;;;;;5.13;2.47;;;;;;;4.03;100.00;98709.25;5071964;28;20197;-77
2021/12/07 02:30:39;;;;;;;4.55;2.90;;;;;;;4.00;100.00;98708.53;5071868;28;20185;-77
2021/12/07 02:33:06;;;;;;;5.07;2.90;;;;;;;3.95;100.00;98716.72;5070969;28;20227;-77
2021/12/07 02:35:33;;;;;;;6.07;2.80;;;;;;;4.04;100.00;98715.44;5071938;28;20185;-77
2021/12/07 02:38:01;;;;;;;7.97;3.10;;;;;;;4.11;100.00;98724.88;5071356;28;20189;-77
2021/12/07 02:40:28;;;;;;;5.50;3.00;;;;;;;4.25;100.00;98719.81;5071451;28;20185;-77
2021/12/07 02:42:55;;;;;;;6.90;3.30;;;;;;;4.31;100.00;98726.63;5071212;28;20665;-77
2021/12/07 02:45:23;;;;;;;6.78;3.60;;;;;;;4.38;100.00;98722.75;5071838;28;20223;-77
2021/12/07 02:47:51;;;;;;;5.68;3.42;;;;;;;4.48;100.00;98728.53;5071443;28;20643;-77
2021/12/07 02:50:18;;;;;;;16.88;3.83;;;;;;;4.39;100.00;98736.00;5071875;28;20236;-77
2021/12/07 02:52:45;;;;;;;9.32;3.72;;;;;;;4.42;100.00;98734.13;5070846;28;20204;-76
2021/12/07 02:55:13;;;;;;;4.60;2.60;;;;;;;4.33;100.00;98746.09;5071815;28;20302;-77
2021/12/07 02:57:42;;;;;;;11.40;3.20;;;;;;;4.34;100.00;98740.69;5071489;28;20185;-77
2021/12/07 03:00:15;;;;;;;10.70;3.70;;;;;;;4.39;100.00;98744.00;5071463;28;20201;-78
2021/12/07 03:02:47;;;;;;;5.60;3.42;;;;;;;4.35;100.00;98747.75;5071336;28;20189;-77
2021/12/07 03:05:24;;;;;;;9.70;3.67;;;;;;;4.30;100.00;98747.09;5071638;28;20276;-76
2021/12/07 03:08:12;;;;;;;6.03;3.40;;;;;;;4.33;100.00;98744.28;5070671;28;20353;-77
2021/12/07 03:27:13;;;;;;;9.77;3.42;;;;;;;4.39;100.00;98756.47;5052338;28;20695;-76
2021/12/07 03:29:40;;;;;;;8.77;3.70;;;;;;;4.30;100.00;98768.41;5074930;28;20508;-76
2021/12/07 03:32:07;;;;;;;7.72;4.50;;;;;;;4.43;100.00;98778.50;5075691;28;20365;-76
2021/12/07 03:34:34;;;;;;;7.15;3.45;;;;;;;4.46;100.00;98787.22;5075157;28;20203;-77
2021/12/07 03:37:01;;;;;;;7.45;3.30;;;;;;;4.49;100.00;98788.88;5075024;28;20559;-77
2021/12/07 03:39:27;;;;;;;6.88;3.10;;;;;;;4.43;100.00;98786.50;5074077;28;20200;-76
2021/12/07 03:41:54;;;;;;;5.53;3.40;;;;;;;4.45;100.00;98787.28;5074508;28;20281;-77
2021/12/07 03:44:22;;;;;;;9.68;3.17;;;;;;;4.40;100.00;98792.84;5074580;28;20661;-77
2021/12/07 03:46:49;;;;;;;6.95;2.85;;;;;;;4.44;100.00;98794.44;5074793;28;20209;-76
2021/12/07 03:49:16;;;;;;;12.00;4.20;;;;;;;4.36;100.00;98804.56;5074500;28;20190;-77
2021/12/07 03:51:43;;;;;;;5.40;3.00;;;;;;;4.36;100.00;98797.47;5074346;28;20669;-77
2021/12/07 03:54:09;;;;;;;5.20;2.95;;;;;;;4.32;100.00;98814.53;5074448;28;20201;-77
2021/12/07 03:56:36;;;;;;;4.80;2.60;;;;;;;4.31;100.00;98818.09;5074453;28;20699;-77
2021/12/07 03:59:03;;;;;;;8.30;3.13;;;;;;;4.25;100.00;98823.72;5074360;28;20197;-76
2021/12/07 04:01:31;;;;;;;8.65;3.90;;;;;;;4.30;100.00;98828.84;5074225;28;20193;-77
2021/12/07 04:04:01;;;;;;;5.78;3.15;;;;;;;4.30;100.00;98828.84;5073962;28;20195;-77
2021/12/07 04:06:27;;;;;;;16.40;4.45;;;;;;;4.23;100.00;98833.59;5074237;28;20732;-77
2021/12/07 04:08:54;;;;;;;6.15;3.10;;;;;;;4.27;100.00;98843.16;5073958;28;20189;-76
2021/12/07 04:11:21;;;;;;;12.70;6.00;;;;;;;4.30;100.00;98840.38;5074071;28;20654;-76
2021/12/07 04:13:48;;;;;;;8.15;3.15;;;;;;;4.29;100.00;98843.09;5074198;28;20203;-77
2021/12/07 04:16:16;;;;;;;10.82;3.72;;;;;;;4.24;100.00;98850.44;5073966;28;20192;-77
2021/12/07 04:18:44;;;;;;;6.50;3.63;;;;;;;4.19;100.00;98847.97;5074171;28;20542;-77
2021/12/07 04:21:11;;;;;;;9.25;3.42;;;;;;;4.23;100.00;98857.56;5074073;28;20193;-77
2021/12/07 04:23:38;;;;;;;8.18;2.97;;;;;;;4.11;100.00;98866.94;5074377;28;20532;-77
2021/12/07 04:26:07;;;;;;;21.42;3.53;;;;;;;4.13;100.00;98870.41;5073668;28;20196;-76
2021/12/07 04:28:34;;;;;;;5.88;3.72;;;;;;;4.14;100.00;98871.28;5073866;28;20213;-77
2021/12/07 04:31:01;;;;;;;6.22;3.47;;;;;;;4.13;100.00;98880.19;5073687;28;20204;-76
2021/12/07 04:33:29;;;;;;;5.78;3.20;;;;;;;4.18;100.00;98872.88;5073941;28;20233;-77
2021/12/07 04:35:58;;;;;;;8.57;3.33;;;;;;;4.20;100.00;98880.81;5073845;28;20201;-77
2021/12/07 04:38:25;;;;;;;6.40;3.00;;;;;;;4.19;100.00;98882.59;5073092;28;20545;-77
2021/12/07 04:40:51;;;;;;;10.27;3.42;;;;;;;4.24;100.00;98872.59;5073452;28;20288;-76
2021/12/07 04:43:18;;;;;;;9.27;3.47;;;;;;;4.17;100.00;98885.34;5073625;28;20281;-76
2021/12/07 04:45:57;;;;;;;9.77;2.60;;;;;;;4.28;100.00;98881.34;5073870;28;20194;-77
2021/12/07 04:48:51;;;;;;;9.15;3.10;;;;;;;4.31;100.00;98879.41;5073363;28;20279;-77
2021/12/07 04:59:33;;;;;;;6.15;2.53;;;;;;;4.62;100.00;98888.69;5073270;28;20230;-76
2021/12/07 05:02:00;;;;;;;9.02;2.97;;;;;;;4.60;100.00;98875.44;5072576;28;20288;-77
2021/12/07 05:04:30;;;;;;;9.27;3.08;;;;;;;4.54;100.00;98893.50;5073128;28;20281;-76
2021/12/07 05:07:05;;;;;;;7.78;3.28;;;;;;;4.47;100.00;98897.38;5072916;28;20213;-77
2021/12/07 05:09:52;;;;;;;8.65;2.70;;;;;;;4.38;100.00;98906.66;5072965;28;20296;-76
2021/12/07 05:12:32;;;;;;;8.77;3.20;;;;;;;4.37;100.00;98908.44;5073323;28;20189;-76
2021/12/07 05:15:07;;;;;;;4.88;3.67;;;;;;;4.37;100.00;98916.44;5073207;28;20189;-76
2021/12/07 05:18:00;;;;;;;8.63;2.65;;;;;;;4.34;100.00;98929.03;5072998;28;20216;-76
2021/12/07 05:40:00;;;;;;;7.13;2.35;;;;;;;4.44;97.62;98961.50;5072732;28;20969;-77
2021/12/07 05:42:26;;;;;;;5.28;2.28;;;;;;;4.47;96.85;98970.22;5072233;28;20206;-78
2021/12/07 05:44:55;;;;;;;6.78;2.38;;;;;;;4.59;97.21;98955.50;5072481;28;20227;-77
2021/12/07 05:47:22;;;;;;;8.15;3.05;;;;;;;4.50;96.22;98961.22;5072222;28;20663;-77
2021/12/07 05:49:49;;;;;;;5.38;2.67;;;;;;;4.50;96.07;98970.09;5071358;28;20189;-77
2021/12/07 05:52:16;;;;;;;6.63;2.42;;;;;;;4.51;97.54;98965.63;5071208;28;20680;-77
2021/12/07 05:54:43;;;;;;;9.98;3.05;;;;;;;4.64;96.43;98965.97;5072344;28;20199;-77
2021/12/07 05:57:11;;;;;;;4.85;2.15;;;;;;;4.51;96.10;98960.31;5072397;28;20193;-77
2021/12/07 05:59:38;;;;;;;5.70;2.55;;;;;;;4.48;96.60;98965.78;5071887;28;20189;-77
2021/12/07 06:02:05;;;;;;;7.78;2.80;;;;;;;4.54;96.79;98970.81;5070371;28;20213;-77
2021/12/07 06:04:33;;;;;;;3.85;2.60;;;;;;;4.50;97.87;98972.78;5072113;28;20193;-77
2021/12/07 06:07:00;;;;;;;10.43;3.38;;;;;;;4.56;97.82;98974.28;5071558;28;20296;-76
2021/12/07 06:09:27;;;;;;;10.30;3.47;;;;;;;4.63;96.65;98981.06;5071338;28;20196;-77
2021/12/07 06:11:54;;;;;;;5.72;2.78;;;;;;;4.73;95.83;98979.75;5071526;28;20199;-77
2021/12/07 06:14:29;;;;;;;6.55;2.85;;;;;;;4.59;95.78;98984.84;5071871;28;20552;-77
2021/12/07 06:16:56;;;;;;;8.10;3.30;;;;;;;4.61;96.39;98993.59;5071428;28;20185;-77
2021/12/07 06:19:22;;;;;;;7.32;2.85;;;;;;;4.54;96.34;98994.81;5078676;28;20193;-77
2021/12/07 06:21:49;;;;;;;6.50;2.40;;;;;;;4.53;95.67;99001.09;5071765;28;20538;-76
2021/12/07 06:24:16;;;;;;;11.00;3.00;;;;;;;4.62;95.96;98995.34;5071757;28;20208;-76
2021/12/07 06:26:43;;;;;;;5.43;2.55;;;;;;;4.63;95.75;99007.75;5072064;28;20195;-74
2021/12/07 06:29:09;;;;;;;4.25;2.80;;;;;;;4.67;94.94;99003.16;5073002;28;20189;-73
2021/12/07 06:31:37;;;;;;;5.68;2.72;;;;;;;4.61;94.72;99012.28;5072457;28;20204;-74
2021/12/07 06:34:04;;;;;;;5.75;2.88;;;;;;;4.59;95.27;99020.38;5072925;28;20186;-73
2021/12/07 06:36:30;;;;;;;8.05;3.97;;;;;;;4.62;95.51;99016.69;5071521;28;20185;-73
2021/12/07 06:38:57;;;;;;;7.18;3.15;;;;;;;4.55;95.74;99021.41;5072686;28;20422;-75
2021/12/07 06:41:24;;;;;;;10.73;2.60;;;;;;;4.50;94.44;99018.09;5072605;28;20207;-74
2021/12/07 06:43:50;;;;;;;9.70;3.72;;;;;;;4.50;94.73;99022.53;5076539;28;20195;-72
2021/12/07 06:46:17;;;;;;;9.52;3.88;;;;;;;4.45;94.61;99033.38;5085416;28;20722;-74
2021/12/07 06:48:46;;;;;;;4.07;2.25;;;;;;;4.45;94.53;99032.53;5072473;28;20221;-74
2021/12/07 06:51:13;;;;;;;7.10;2.85;;;;;;;4.54;92.73;99034.81;5072149;28;20200;-74
2021/12/07 06:53:40;;;;;;;8.68;2.75;;;;;;;4.53;92.16;99030.41;5072222;28;20197;-75
2021/12/07 06:56:09;;;;;;;4.43;2.40;;;;;;;4.58;93.00;99033.75;5072123;28;20185;-76
2021/12/07 06:58:37;;;;;;;6.72;2.38;;;;;;;4.61;93.64;99036.28;5071523;28;20185;-73
2021/12/07 07:01:06;;;;;;;7.50;2.63;;;;;;;4.57;94.21;99042.69;5072011;28;20291;-74
2021/12/07 07:03:33;;;;;;;4.07;2.40;;;;;;;4.59;93.25;99044.38;5076279;28;20235;-74
2021/12/07 07:06:04;;;;;;;5.38;2.22;;;;;;;4.70;92.55;99046.53;5075737;28;20182;-74
2021/12/07 07:08:31;;;;;;;7.30;2.25;;;;;;;4.63;93.18;99042.41;5075961;28;20315;-75
2021/12/07 07:10:58;;;;;;;8.15;3.17;;;;;;;4.72;93.27;99049.16;5076031;28;20197;-74
2021/12/07 07:13:25;;;;;;;7.95;3.13;;;;;;;4.69;94.15;99058.16;5075496;28;20208;-74
2021/12/07 07:15:51;;;;;;;7.63;2.92;;;;;;;4.88;93.53;99063.56;5075882;28;20204;-72
2021/12/07 07:18:18;;;;;;;8.60;2.75;;;;;;;4.75;91.69;99063.25;5075942;28;20204;-74
2021/12/07 07:20:45;;;;;;;7.20;2.60;;;;;;;4.78;92.81;99065.75;5076061;28;20189;-73
2021/12/07 07:23:13;;;;;;;9.50;2.83;;;;;;;4.87;93.83;99074.31;5076000;28;20205;-74
2021/12/07 07:25:39;;;;;;;8.93;3.30;;;;;;;4.79;94.71;99085.28;5075641;28;20540;-74
2021/12/07 07:28:06;;;;;;;92.68;11.52;;;;;;;4.89;92.78;99089.31;5074963;28;20247;-73
2021/12/07 07:30:35;;;;;;;16.20;3.97;;;;;;;4.79;92.52;99086.19;5075138;28;20189;-74
2021/12/07 07:33:02;;;;;;;8.30;3.15;;;;;;;4.93;92.56;99088.25;5075315;28;20241;-73
2021/12/07 07:35:29;;;;;;;5.13;2.80;;;;;;;4.84;90.92;99087.75;5075064;28;20683;-74
2021/12/07 07:37:56;;;;;;;6.53;2.65;;;;;;;4.84;91.91;99085.09;5075458;28;20208;-72
2021/12/07 07:40:24;;;;;;;11.82;3.60;;;;;;;4.89;93.06;99091.13;5075424;28;20288;-75
2021/12/07 07:42:52;;;;;;;9.82;4.05;;;;;;;4.93;91.72;99084.69;5075226;28;20186;-73
2021/12/07 07:45:19;;;;;;;9.10;4.00;;;;;;;4.88;92.25;99082.22;5075165;28;20197;-74
2021/12/07 07:47:46;;;;;;;8.68;4.25;;;;;;;5.01;91.37;99077.25;5074911;28;20693;-73
2021/12/07 07:50:14;;;;;;;7.68;3.63;;;;;;;5.03;90.60;99080.72;5074995;28;20187;-75
2021/12/07 07:52:42;;;;;;;8.55;3.38;;;;;;;4.89;91.43;99078.66;5074872;28;20185;-73
2021/12/07 07:55:10;;;;;;;7.97;3.28;;;;;;;4.81;91.25;99073.63;5075033;28;20200;-74
2021/12/07 07:57:38;;;;;;;10.77;4.75;;;;;;;4.94;91.43;99073.97;5075057;28;20197;-76
2021/12/07 08:00:09;;;;;;;6.18;3.10;;;;;;;4.75;92.14;99083.72;5074983;28;20196;-74
2021/12/07 08:02:35;;;;;;;6.93;3.75;;;;;;;4.91;92.23;99089.25;5074877;28;20190;-73
2021/12/07 08:05:02;;;;;;;10.23;3.90;;;;;;;4.99;91.49;99085.28;5074921;28;20211;-74
2021/12/07 08:07:29;;;;;;;9.05;4.13;;;;;;;4.93;90.84;99084.69;5074761;28;20194;-75
2021/12/07 08:09:55;;;;;;;10.85;4.72;;;;;;;4.97;90.84;99088.97;5074812;28;20190;-75
2021/12/07 08:12:22;;;;;;;7.85;3.55;;;;;;;4.81;91.28;99094.97;5074737;28;20214;-75
2021/12/07 08:14:50;;;;;;;6.15;3.22;;;;;;;4.78;91.82;99097.78;5073342;28;20196;-75
2021/12/07 08:17:16;;;;;;;9.45;3.60;;;;;;;4.77;92.27;99096.06;5074763;28;20185;-74
2021/12/07 08:19:43;;;;;;;9.13;3.47;;;;;;;4.83;92.19;99094.91;5074760;28;20201;-75
2021/12/07 08:22:10;;;;;;;13.90;4.00;;;;;;;4.92;92.77;99090.97;5074911;28;20194;-74
2021/12/07 08:24:36;;;;;;;6.93;3.97;;;;;;;5.07;91.79;99095.66;5074464;28;20205;-74
2021/12/07 08:27:03;;;;;;;9.60;3.75;;;;;;;5.19;90.87;99102.25;5074078;28;20215;-73
2021/12/07 08:29:30;;;;;;;5.40;3.45;;;;;;;5.31;90.21;99116.84;5074550;28;20212;-73
2021/12/07 08:31:58;;;;;;;6.43;3.50;;;;;;;5.21;90.18;99106.59;5073879;28;20244;-73
2021/12/07 08:34:24;;;;;;;10.48;3.55;;;;;;;5.18;89.80;99105.88;5074694;28;20190;-73
2021/12/07 08:36:51;;;;;;;9.02;3.95;;;;;;;5.30;90.45;99120.47;5074684;28;20192;-74
2021/12/07 08:39:17;;;;;;;10.98;4.18;;;;;;;5.39;89.27;99104.03;5074018;28;20285;-72
2021/12/07 08:41:44;;;;;;;8.38;3.28;;;;;;;5.53;88.66;99104.28;5073974;28;20197;-74
2021/12/07 08:44:11;;;;;;;10.20;3.58;;;;;;;5.66;88.00;99106.41;5073929;28;20334;-73
2021/12/07 08:46:39;;;;;;;7.20;4.40;;;;;;;5.66;87.77;99106.41;5074055;28;20212;-73
2021/12/07 08:49:07;;;;;;;10.98;4.93;;;;;;;5.78;86.55;99096.00;5073651;28;20233;-74
2021/12/07 08:51:34;;;;;;;10.60;3.58;;;;;;;5.67;86.56;99105.44;5074168;28;20186;-74
2021/12/07 08:54:16;;;;;;;13.43;4.80;;;;;;;5.33;87.86;99112.31;5073440;28;20209;-74
2021/12/07 08:59:44;;;;;;;8.32;4.28;;;;;;;5.36;90.85;99120.19;5073849;28;20256;-74
2021/12/07 09:02:13;;;;;;;9.57;4.38;;;;;;;5.71;88.18;99093.69;5073577;28;20229;-74
2021/12/07 09:04:41;;;;;;;18.75;4.45;;;;;;;5.85;86.97;99099.25;5074204;28;20189;-73
2021/12/07 09:07:09;;;;;;;11.55;6.78;;;;;;;5.80;86.50;99098.59;5073874;28;20204;-74
2021/12/07 09:09:37;;;;;;;9.63;5.15;;;;;;;5.83;85.72;99103.78;5074386;28;20303;-74
2021/12/07 09:12:04;;;;;;;15.82;4.40;;;;;;;6.19;86.07;99097.69;5073502;28;20197;-73
2021/12/07 09:14:32;;;;;;;12.32;4.43;;;;;;;6.51;84.38;99095.25;5074422;28;20186;-74
2021/12/07 09:16:59;;;;;;;8.50;4.70;;;;;;;6.47;82.27;99099.91;5073130;28;20205;-73
2021/12/07 09:19:25;;;;;;;9.60;3.97;;;;;;;6.50;82.91;99094.38;5073639;28;20198;-73
2021/12/07 09:21:54;;;;;;;9.38;4.57;;;;;;;6.83;81.09;99091.84;5073044;28;20190;-74
2021/12/07 09:24:21;;;;;;;9.77;4.00;;;;;;;6.47;81.83;99075.81;5072725;28;20199;-74
2021/12/07 09:26:48;;;;;;;12.55;4.85;;;;;;;6.82;82.06;99082.06;5073289;28;20194;-75
2021/12/07 09:29:15;;;;;;;11.15;5.40;;;;;;;6.83;80.88;99074.94;5073557;28;20210;-74
2021/12/07 09:31:43;;;;;;;10.70;4.28;;;;;;;6.97;79.88;99082.25;5073130;28;20204;-74
2021/12/07 09:34:11;;;;;;;11.85;4.45;;;;;;;6.75;80.39;99080.66;5072673;28;20208;-74
2021/12/07 09:36:39;;;;;;;10.88;4.85;;;;;;;6.77;80.77;99080.56;5073607;28;20661;-73
2021/12/07 09:39:10;;;;;;;6.78;3.70;;;;;;;6.90;79.66;99087.03;5073156;28;20190;-73
2021/12/07 09:41:37;;;;;;;4.50;3.20;;;;;;;6.75;79.93;99080.66;5073084;28;20198;-75
2021/12/07 09:44:05;;;;;;;9.80;4.00;;;;;;;6.64;81.66;99083.84;5072910;28;20684;-74
2021/12/07 09:46:31;;;;;;;10.50;5.53;;;;;;;6.62;82.50;99075.03;5073453;28;20631;-74
2021/12/07 09:48:58;;;;;;;9.93;4.30;;;;;;;6.63;82.17;99073.25;5072977;28;20206;-74
2021/12/07 09:51:27;;;;;;;7.07;3.65;;;;;;;6.64;82.74;99072.28;5072326;28;20193;-74
2021/12/07 09:53:55;;;;;;;7.13;3.70;;;;;;;6.58;82.16;99073.47;5071855;28;20188;-74
2021/12/07 09:56:24;;;;;;;9.38;4.32;;;;;;;6.62;82.66;99077.72;5072209;28;20193;-74
2021/12/07 09:58:54;;;;;;;9.70;4.60;;;;;;;6.76;82.31;99074.38;5072322;28;20492;-74
2021/12/07 10:01:21;;;;;;;11.25;4.35;;;;;;;6.55;82.39;99084.31;5072444;28;20201;-74
2021/12/07 10:03:48;;;;;;;9.02;3.92;;;;;;;6.42;83.29;99075.16;5072210;28;20192;-74
2021/12/07 10:06:15;;;;;;;9.98;4.45;;;;;;;6.54;83.05;99073.72;5056134;28;20197;-74
2021/12/07 10:08:43;;;;;;;11.70;4.63;;;;;;;6.56;83.24;99067.34;5072769;28;20220;-73
2021/12/07 10:11:11;;;;;;;9.07;4.60;;;;;;;6.96;82.55;99073.31;5072142;28;20549;-74
2021/12/07 10:13:41;;;;;;;13.00;4.70;;;;;;;6.80;80.95;99073.25;5072796;28;20549;-73
2021/12/07 10:16:09;;;;;;;8.80;3.60;;;;;;;6.69;80.75;99072.91;5072844;28;20213;-74
2021/12/07 10:18:38;;;;;;;8.85;4.05;;;;;;;6.82;82.00;99057.97;5072154;28;20199;-73
2021/12/07 10:21:10;;;;;;;10.30;5.70;;;;;;;6.79;83.65;99058.16;5072119;28;20704;-73
2021/12/07 10:23:38;;;;;;;7.72;4.60;;;;;;;7.12;81.12;99053.78;5072355;28;20217;-74
2021/12/07 10:26:08;;;;;;;11.60;5.13;;;;;;;7.30;79.86;99036.75;5072477;28;20531;-73
2021/12/07 10:28:38;;;;;;;6.82;4.75;;;;;;;7.40;79.32;99039.81;5071462;28;20224;-75
2021/12/07 10:31:18;;;;;;;9.35;4.95;;;;;;;7.31;79.09;99034.00;5071419;28;20205;-74
2021/12/07 10:33:47;;;;;;;12.48;5.30;;;;;;;7.11;80.02;99031.50;5070690;28;20243;-74
2021/12/07 10:36:17;;;;;;;11.90;5.60;;;;;;;7.29;80.14;99035.88;5070892;28;20195;-73
2021/12/07 10:38:49;;;;;;;12.25;5.35;;;;;;;7.33;79.29;99028.56;5071580;28;20597;-74
2021/12/07 10:41:21;;;;;;;12.45;5.93;;;;;;;7.44;79.18;99027.94;5072101;28;20195;-75
2021/12/07 10:43:53;;;;;;;10.20;3.95;;;;;;;7.08;78.19;99031.69;5069775;28;20190;-75
2021/12/07 10:46:45;;;;;;;12.95;6.35;;;;;;;7.08;78.29;99026.34;5071049;28;20194;-74
2021/12/07 10:49:26;;;;;;;7.38;4.82;;;;;;;7.28;77.80;99026.13;5070147;28;20207;-74
2021/12/07 10:52:16;;;;;;;6.32;3.53;;;;;;;7.17;75.65;99012.44;5072031;28;20195;-73
2021/12/07 10:54:49;;;;;;;9.23;6.75;;;;;;;7.13;77.22;99004.66;5072174;28;20200;-73
2021/12/07 10:57:19;;;;;;;7.78;5.10;;;;;;;7.13;76.54;99002.84;5071449;28;20193;-75
2021/12/07 10:59:56;;;;;;;11.60;3.70;;;;;;;7.45;75.32;98997.56;5071555;28;20280;-74
2021/12/07 11:02:30;;;;;;;6.05;3.65;;;;;;;7.28;75.14;98998.47;5071599;28;20233;-73
2021/12/07 11:04:58;;;;;;;9.48;4.22;;;;;;;7.41;75.58;98988.81;5072333;28;20369;-75
2021/12/07 11:07:26;;;;;;;9.60;3.97;;;;;;;7.61;75.25;98981.50;5072139;28;20595;-73
2021/12/07 11:10:07;;;;;;;12.38;6.68;;;;;;;7.69;75.10;98984.63;5071381;28;20300;-74
2021/12/07 11:12:46;;;;;;;31.67;19.58;;;;;;;7.78;74.27;98984.09;5072141;28;20187;-75
2021/12/07 11:15:23;;;;;;;13.52;6.38;;;;;;;7.77;74.25;98974.31;5071846;28;20620;-73
2021/12/07 11:17:53;;;;;;;12.80;4.60;;;;;;;7.69;74.31;98972.09;5072147;28;20193;-75
2021/12/07 11:20:19;;;;;;;15.65;8.43;;;;;;;7.64;74.83;98959.88;5072063;28;20199;-73
2021/12/07 11:22:51;;;;;;;7.40;4.32;;;;;;;7.53;75.50;98965.88;5071907;28;20222;-75
2021/12/07 11:25:53;;;;;;;8.77;4.40;;;;;;;7.65;75.13;98959.81;5071579;28;20198;-72
2021/12/07 11:31:23;;;;;;;12.82;4.97;;;;;;;7.58;75.06;98937.00;5069515;28;20263;-75
2021/12/07 11:33:52;;;;;;;14.35;6.28;;;;;;;7.52;76.02;98938.19;5070926;28;20261;-73
2021/12/07 11:36:23;;;;;;;8.98;4.60;;;;;;;7.58;76.15;98926.28;5071731;28;20211;-74
2021/12/07 11:38:50;;;;;;;12.80;4.10;;;;;;;7.41;76.40;98921.84;5071515;28;20247;-74
2021/12/07 11:41:20;;;;;;;9.90;4.10;;;;;;;7.29;77.57;98918.06;5071837;28;20628;-74
2021/12/07 11:43:56;;;;;;;8.93;4.47;;;;;;;7.43;77.78;98913.75;5071594;28;20209;-74
2021/12/07 11:46:24;;;;;;;12.30;4.53;;;;;;;7.61;77.21;98909.16;5071745;28;20228;-74
2021/12/07 11:49:05;;;;;;;11.05;5.28;;;;;;;7.87;76.29;98905.00;5074722;28;20206;-73
2021/12/07 11:51:32;;;;;;;7.60;4.00;;;;;;;8.25;74.65;98905.38;5074811;28;20191;-75
2021/12/07 11:53:58;;;;;;;9.55;4.10;;;;;;;8.73;71.68;98895.38;5075549;28;20201;-74
2021/12/07 11:56:25;;;;;;;7.80;3.72;;;;;;;8.85;70.10;98896.44;5074942;28;20298;-75
2021/12/07 11:58:52;;;;;;;7.53;3.80;;;;;;;8.76;69.82;98894.31;5075479;28;20681;-74
2021/12/07 12:01:19;;;;;;;9.80;5.03;;;;;;;8.61;71.18;98887.22;5074879;28;20208;-75
2021/12/07 12:03:45;;;;;;;11.38;3.95;;;;;;;8.51;71.50;98892.28;5075062;28;20287;-74
2021/12/07 12:06:14;;;;;;;12.93;4.40;;;;;;;8.39;72.09;98890.28;5074530;28;20292;-76
2021/12/07 12:08:41;;;;;;;9.88;5.03;;;;;;;8.26;72.21;98891.03;5074798;28;20279;-73
2021/12/07 12:11:20;;;;;;;9.35;4.93;;;;;;;7.99;72.89;98877.47;5074534;28;20291;-73
2021/12/07 12:13:57;;;;;;;9.20;3.58;;;;;;;7.80;73.44;98876.81;5054745;28;20294;-74
2021/12/07 12:16:31;;;;;;;9.82;4.20;;;;;;;7.78;73.20;98876.03;5056376;28;20245;-74
2021/12/07 12:19:03;;;;;;;10.07;3.70;;;;;;;7.90;73.47;98878.00;5074642;28;20332;-73
2021/12/07 12:21:37;;;;;;;6.15;3.50;;;;;;;8.07;72.35;98867.16;5074874;28;20196;-73
2021/12/07 12:24:11;;;;;;;7.10;3.78;;;;;;;7.99;73.01;98866.75;5074304;28;20187;-74
2021/12/07 12:26:38;;;;;;;5.70;3.70;;;;;;;8.14;73.41;98857.78;5074549;28;20278;-74
2021/12/07 12:29:17;;;;;;;8.10;3.95;;;;;;;8.50;72.90;98843.13;5074613;28;20646;-74
2021/12/07 12:31:52;;;;;;;11.70;3.30;;;;;;;8.93;70.48;98828.81;5074575;28;20296;-74
2021/12/07 12:34:22;;;;;;;5.63;2.90;;;;;;;8.83;67.99;98822.31;5074594;28;20207;-74
2021/12/07 12:36:58;;;;;;;6.55;3.50;;;;;;;8.35;69.12;98818.06;5073779;28;20610;-73
2021/12/07 12:39:44;;;;;;;9.50;3.40;;;;;;;8.10;70.08;98816.03;5073426;28;20190;-73
2021/12/07 12:42:15;;;;;;;7.70;3.70;;;;;;;8.24;68.95;98814.31;5071985;28;20183;-73
2021/12/07 12:44:42;;;;;;;8.00;5.47;;;;;;;8.13;69.32;98813.16;5071627;28;20199;-74
2021/12/07 12:47:09;;;;;;;7.63;3.58;;;;;;;8.19;69.66;98813.75;5070610;28;20208;-74
2021/12/07 12:49:37;;;;;;;7.88;3.65;;;;;;;8.06;70.47;98808.25;5070935;28;20226;-74
2021/12/07 12:52:07;;;;;;;6.88;2.60;;;;;;;8.08;70.18;98799.16;5078736;28;20199;-74
2021/12/07 12:54:43;;;;;;;9.60;3.85;;;;;;;8.03;70.39;98779.81;5068217;28;20222;-73
2021/12/07 12:57:12;;;;;;;10.27;4.45;;;;;;;7.88;71.33;98778.06;5073447;28;20184;-74
2021/12/07 12:59:40;;;;;;;6.13;3.35;;;;;;;7.92;71.12;98782.28;5072625;28;20295;-72
2021/12/07 13:02:07;;;;;;;9.57;3.78;;;;;;;7.88;71.39;98770.88;5073240;28;20209;-75
2021/12/07 13:04:34;;;;;;;10.23;5.85;;;;;;;7.99;71.17;98772.91;5073074;28;20215;-74